Time;durP1;ratioP1;P1;durP2;ratioP2;P2;SDS_P1;SDS_P2;PMS_P1;PMS_P2;Temp;Humidity;BMP_temperature;BMP_pressure;BME280_temperature;BME280_humidity;BME280_pressure;Samples;Min_cycle;Max_cycle;Signal;HPM_P1;HPM_P2
2022/04/25 00:00:16;;;;;;;28.00;22.87;;;10.10;99.90;;;;;;5072974;28;20952;-68
2022/04/25 00:02:45;;;;;;;27.33;22.07;;;10.10;99.90;;;;;;5073321;28;20443;-67
2022/04/25 00:05:12;;;;;;;27.80;22.83;;;10.10;99.90;;;;;;5072614;28;20458;-67
2022/04/25 00:07:39;;;;;;;26.00;22.63;;;10.10;99.90;;;;;;5073019;28;20435;-67
2022/04/25 00:10:07;;;;;;;28.07;23.17;;;10.10;99.90;;;;;;5073050;28;20438;-69
2022/04/25 00:12:33;;;;;;;26.33;22.30;;;10.10;99.90;;;;;;5073063;28;20454;-68
2022/04/25 00:15:00;;;;;;;27.30;23.47;;;10.10;99.90;;;;;;5072502;28;20566;-68
2022/04/25 00:17:27;;;;;;;28.27;23.60;;;10.10;99.90;;;;;;5072934;28;20487;-69
2022/04/25 00:19:55;;;;;;;32.37;25.47;;;10.10;99.90;;;;;;5072742;28;20520;-68
2022/04/25 00:22:22;;;;;;;28.07;22.97;;;10.00;99.90;;;;;;5072773;28;20450;-68
2022/04/25 00:24:50;;;;;;;33.07;23.67;;;10.10;99.90;;;;;;5072405;28;21003;-68
2022/04/25 00:27:17;;;;;;;29.50;23.60;;;10.00;99.90;;;;;;5072713;28;20542;-67
2022/04/25 00:29:44;;;;;;;30.03;24.37;;;10.10;99.90;;;;;;5072722;28;20458;-67
2022/04/25 00:32:11;;;;;;;31.47;26.70;;;10.10;99.90;;;;;;5072561;28;20534;-69
2022/04/25 00:34:37;;;;;;;29.03;24.10;;;10.10;99.90;;;;;;5072009;28;20471;-68
2022/04/25 00:37:06;;;;;;;28.70;25.17;;;10.00;99.90;;;;;;5072207;28;20479;-68
2022/04/25 00:39:33;;;;;;;31.90;25.87;;;10.10;99.90;;;;;;5072680;28;20526;-68
2022/04/25 00:42:00;;;;;;;29.80;24.90;;;10.00;99.90;;;;;;5072219;28;21002;-69
2022/04/25 00:44:27;;;;;;;32.50;25.90;;;10.00;99.90;;;;;;5072029;28;21055;-67
2022/04/25 00:46:54;;;;;;;29.50;24.93;;;10.00;99.90;;;;;;5072276;28;20446;-69
2022/04/25 00:49:22;;;;;;;33.13;27.20;;;10.00;99.90;;;;;;5072284;28;20859;-68
2022/04/25 00:51:51;;;;;;;30.00;25.07;;;10.00;99.90;;;;;;5072164;28;20447;-69
2022/04/25 00:54:20;;;;;;;32.90;26.77;;;10.00;99.90;;;;;;5072006;28;20475;-67
2022/04/25 00:56:48;;;;;;;29.43;26.27;;;10.00;99.90;;;;;;5071490;28;21030;-68
2022/04/25 00:59:17;;;;;;;33.13;27.83;;;10.00;99.90;;;;;;5072271;28;20866;-67
2022/04/25 01:01:45;;;;;;;33.43;28.90;;;10.00;99.90;;;;;;5072072;28;21196;-68
2022/04/25 01:04:12;;;;;;;32.40;28.90;;;10.00;99.90;;;;;;5071854;28;20561;-69
2022/04/25 01:06:39;;;;;;;36.93;29.27;;;9.80;99.90;;;;;;5072078;28;20436;-68
2022/04/25 01:09:06;;;;;;;35.90;29.87;;;9.80;99.90;;;;;;5072074;28;20543;-68
2022/04/25 01:11:34;;;;;;;33.83;29.50;;;9.80;99.90;;;;;;5072057;28;20538;-69
2022/04/25 01:14:11;;;;;;;37.40;29.20;;;9.80;99.90;;;;;;5071771;28;20459;-68
2022/04/25 01:16:39;;;;;;;36.27;29.90;;;9.70;99.90;;;;;;5072013;28;20497;-68
2022/04/25 01:19:05;;;;;;;37.80;30.80;;;9.70;99.90;;;;;;5071758;28;20585;-68
2022/04/25 01:21:52;;;;;;;34.80;29.20;;;9.70;99.90;;;;;;5065290;28;20459;-67
2022/04/25 01:27:18;;;;;;;34.67;29.07;;;9.70;99.90;;;;;;5071845;28;20423;-68
2022/04/25 01:29:45;;;;;;;36.13;30.73;;;9.70;99.90;;;;;;5071568;28;20521;-67
2022/04/25 01:32:12;;;;;;;35.77;30.63;;;9.70;99.90;;;;;;5071698;28;20809;-68
2022/04/25 01:34:40;;;;;;;36.53;30.13;;;9.70;99.90;;;;;;5071133;28;20463;-69
2022/04/25 01:37:07;;;;;;;33.70;30.10;;;9.70;99.90;;;;;;5071270;28;20479;-69
2022/04/25 01:39:39;;;;;;;36.40;29.17;;;9.70;99.90;;;;;;5071168;28;20447;-67
2022/04/25 01:42:07;;;;;;;33.20;29.40;;;9.70;99.90;;;;;;5071550;28;20443;-68
2022/04/25 01:44:35;;;;;;;31.83;28.30;;;9.70;99.90;;;;;;5071040;28;20467;-69
2022/04/25 01:47:01;;;;;;;35.33;29.57;;;9.70;99.90;;;;;;5071281;28;20446;-68
2022/04/25 01:49:29;;;;;;;35.97;30.73;;;9.70;99.90;;;;;;5070981;28;20966;-68
2022/04/25 01:51:55;;;;;;;36.27;31.30;;;9.70;99.90;;;;;;5071142;28;20953;-68
2022/04/25 01:54:26;;;;;;;34.07;28.93;;;9.70;99.90;;;;;;5070767;28;21160;-67
2022/04/25 01:56:55;;;;;;;38.63;32.63;;;9.60;99.90;;;;;;5071060;28;20529;-67
2022/04/25 01:59:22;;;;;;;39.37;31.80;;;9.70;99.90;;;;;;5070916;28;20449;-68
2022/04/25 02:01:49;;;;;;;33.97;30.30;;;9.60;99.90;;;;;;5071003;28;20473;-67
2022/04/25 02:04:16;;;;;;;37.13;30.70;;;9.60;99.90;;;;;;5070325;28;20467;-68
2022/04/25 02:06:43;;;;;;;41.10;30.07;;;9.70;99.90;;;;;;5070848;28;20538;-67
2022/04/25 02:09:10;;;;;;;36.50;29.23;;;9.60;99.90;;;;;;5069837;28;20535;-67
2022/04/25 02:11:37;;;;;;;36.13;30.70;;;9.70;99.90;;;;;;5070761;28;20462;-66
2022/04/25 02:14:05;;;;;;;35.10;30.57;;;9.70;99.90;;;;;;5070374;28;20467;-67
2022/04/25 02:16:32;;;;;;;33.87;29.27;;;9.60;99.90;;;;;;5070788;28;20435;-67
2022/04/25 02:18:59;;;;;;;34.40;29.03;;;9.60;99.90;;;;;;5071033;28;20473;-68
2022/04/25 02:21:26;;;;;;;34.93;27.80;;;9.70;99.90;;;;;;5071420;28;20509;-67
2022/04/25 02:23:53;;;;;;;33.60;30.03;;;9.70;99.90;;;;;;5071394;28;20498;-68
2022/04/25 02:26:20;;;;;;;35.60;29.33;;;9.70;99.90;;;;;;5070509;28;20443;-67
2022/04/25 02:28:46;;;;;;;33.33;28.57;;;9.60;99.90;;;;;;5070721;28;20454;-68
2022/04/25 02:31:15;;;;;;;35.50;29.70;;;9.60;99.90;;;;;;5070553;28;20435;-67
2022/04/25 02:33:42;;;;;;;33.53;28.70;;;9.60;99.90;;;;;;5070150;28;20435;-67
2022/04/25 02:36:09;;;;;;;36.87;30.50;;;9.60;99.90;;;;;;5070269;28;20493;-67
2022/04/25 02:38:38;;;;;;;35.00;29.50;;;9.50;99.90;;;;;;5070333;28;20483;-68
2022/04/25 02:41:05;;;;;;;33.30;28.57;;;9.50;99.90;;;;;;5070237;28;20435;-68
2022/04/25 02:43:34;;;;;;;32.77;27.30;;;9.50;99.90;;;;;;5070141;28;20531;-68
2022/04/25 02:46:03;;;;;;;35.53;30.00;;;9.50;99.90;;;;;;5069892;28;20534;-69
2022/04/25 02:48:31;;;;;;;36.30;30.30;;;9.50;99.90;;;;;;5070080;28;20437;-67
2022/04/25 02:50:59;;;;;;;35.10;30.03;;;9.60;99.90;;;;;;5070048;28;20454;-67
2022/04/25 02:53:26;;;;;;;35.90;28.43;;;9.50;99.90;;;;;;5069961;28;20929;-68
2022/04/25 02:55:53;;;;;;;35.27;27.77;;;9.50;99.90;;;;;;5069772;28;20933;-67
2022/04/25 02:58:21;;;;;;;34.67;28.87;;;9.50;99.90;;;;;;5069824;28;20475;-67
2022/04/25 03:00:48;;;;;;;36.10;29.00;;;9.50;99.90;;;;;;5069992;28;20443;-67
2022/04/25 03:03:16;;;;;;;35.07;29.80;;;9.50;99.90;;;;;;5070167;28;20443;-68
2022/04/25 03:05:46;;;;;;;35.73;29.97;;;9.60;99.90;;;;;;5069727;28;20984;-68
2022/04/25 03:08:14;;;;;;;32.13;27.30;;;9.60;99.90;;;;;;5070315;28;20457;-68
2022/04/25 03:10:42;;;;;;;33.67;27.33;;;9.50;99.90;;;;;;5070055;28;20447;-68
2022/04/25 03:13:10;;;;;;;35.70;28.20;;;9.60;99.90;;;;;;5070161;28;20489;-68
2022/04/25 03:15:38;;;;;;;33.00;27.37;;;9.50;99.90;;;;;;5069475;28;20463;-67
2022/04/25 03:18:05;;;;;;;36.70;28.87;;;9.50;99.90;;;;;;5070115;28;20525;-69
2022/04/25 03:20:32;;;;;;;33.00;29.10;;;9.50;99.90;;;;;;5069329;28;20447;-68
2022/04/25 03:23:01;;;;;;;30.03;26.70;;;9.50;99.90;;;;;;5069929;28;20450;-68
2022/04/25 03:25:28;;;;;;;32.90;28.60;;;9.60;99.90;;;;;;5069262;28;20467;-67
2022/04/25 03:27:55;;;;;;;34.77;30.33;;;9.60;99.90;;;;;;5070928;28;20454;-67
2022/04/25 03:30:22;;;;;;;36.03;30.87;;;9.60;99.90;;;;;;5069642;28;21075;-67
2022/04/25 03:32:49;;;;;;;38.30;29.40;;;9.50;99.90;;;;;;5069693;28;20443;-68
2022/04/25 03:35:17;;;;;;;33.50;28.20;;;9.50;99.90;;;;;;5069316;28;20540;-69
2022/04/25 03:37:45;;;;;;;37.43;28.47;;;9.40;99.90;;;;;;5069739;28;20479;-69
2022/04/25 03:40:14;;;;;;;36.67;29.17;;;9.40;99.90;;;;;;5069660;28;20451;-69
2022/04/25 03:42:43;;;;;;;36.10;28.70;;;9.20;99.90;;;;;;5069910;28;20538;-69
2022/04/25 03:45:10;;;;;;;39.63;28.20;;;9.10;99.90;;;;;;5069295;28;20475;-69
2022/04/25 03:47:38;;;;;;;36.80;31.20;;;9.00;99.90;;;;;;5069465;28;21296;-69
2022/04/25 03:50:08;;;;;;;39.63;30.30;;;9.00;99.90;;;;;;5069705;28;20451;-70
2022/04/25 03:52:35;;;;;;;40.00;31.63;;;9.00;99.90;;;;;;5069834;28;20546;-68
2022/04/25 03:57:55;;;;;;;40.07;32.03;;;8.90;99.90;;;;;;5011855;28;20466;-69
2022/04/25 04:00:23;;;;;;;40.80;31.17;;;8.90;99.90;;;;;;5069365;28;21182;-69
2022/04/25 04:02:50;;;;;;;35.83;29.40;;;9.00;99.90;;;;;;5069063;28;20451;-68
2022/04/25 04:05:17;;;;;;;38.20;31.37;;;9.00;99.90;;;;;;5068851;28;20984;-68
2022/04/25 04:07:45;;;;;;;43.87;32.83;;;9.10;99.90;;;;;;5069075;28;20457;-69
2022/04/25 04:10:12;;;;;;;39.40;31.90;;;9.00;99.90;;;;;;5069527;28;20439;-68
2022/04/25 04:12:39;;;;;;;40.73;34.03;;;9.10;99.90;;;;;;5069099;28;20977;-68
2022/04/25 04:15:08;;;;;;;37.10;30.33;;;9.10;99.90;;;;;;5068908;28;20486;-70
2022/04/25 04:17:35;;;;;;;41.97;31.30;;;9.10;99.90;;;;;;5068975;28;20471;-69
2022/04/25 04:20:03;;;;;;;39.90;30.40;;;9.20;99.90;;;;;;5069546;28;20435;-68
2022/04/25 04:22:32;;;;;;;40.50;33.97;;;9.20;99.90;;;;;;5068906;28;20443;-68
2022/04/25 04:25:01;;;;;;;42.43;32.60;;;9.20;99.90;;;;;;5068856;28;20463;-68
2022/04/25 04:27:31;;;;;;;39.43;33.40;;;9.20;99.90;;;;;;5069175;28;20653;-68
2022/04/25 04:29:58;;;;;;;39.30;31.97;;;9.30;99.90;;;;;;5068890;28;20523;-69
2022/04/25 04:32:29;;;;;;;38.17;31.13;;;9.40;99.90;;;;;;5070474;28;20461;-71
2022/04/25 04:34:56;;;;;;;37.90;30.90;;;9.40;99.90;;;;;;5072396;28;20458;-69
2022/04/25 04:37:22;;;;;;;38.87;31.33;;;9.40;99.90;;;;;;5072714;28;20504;-69
2022/04/25 04:39:49;;;;;;;36.77;30.67;;;9.50;99.90;;;;;;5072536;28;20435;-68
2022/04/25 04:42:16;;;;;;;39.17;32.10;;;9.50;99.90;;;;;;5072597;28;20443;-68
2022/04/25 04:44:43;;;;;;;44.43;32.37;;;9.50;99.90;;;;;;5071658;28;20839;-69
2022/04/25 04:47:10;;;;;;;40.13;31.60;;;9.50;99.90;;;;;;5072393;28;20451;-67
2022/04/25 04:49:39;;;;;;;36.53;31.23;;;9.60;99.90;;;;;;5072128;28;20439;-68
2022/04/25 04:52:07;;;;;;;36.80;30.50;;;9.70;99.90;;;;;;5074021;28;20462;-69
2022/04/25 04:54:33;;;;;;;35.63;29.93;;;9.70;99.90;;;;;;5071635;28;20459;-68
2022/04/25 04:57:00;;;;;;;37.70;29.60;;;9.80;99.90;;;;;;5068225;28;20511;-69
2022/04/25 04:59:27;;;;;;;36.27;31.30;;;9.90;99.90;;;;;;5070202;28;20478;-68
2022/04/25 05:01:54;;;;;;;34.20;29.63;;;10.00;99.90;;;;;;5072467;28;20479;-69
2022/04/25 05:04:21;;;;;;;34.40;29.70;;;10.10;99.90;;;;;;5071822;28;20822;-68
2022/04/25 05:06:49;;;;;;;32.47;28.53;;;10.20;99.90;;;;;;5072080;28;20490;-69
2022/04/25 05:09:16;;;;;;;31.60;28.20;;;10.30;99.90;;;;;;5071146;28;20443;-69
2022/04/25 05:11:43;;;;;;;35.80;30.40;;;10.40;99.90;;;;;;5069622;28;20443;-69
2022/04/25 05:14:10;;;;;;;32.50;28.90;;;10.40;99.90;;;;;;5071730;28;20835;-69
2022/04/25 05:16:37;;;;;;;31.83;28.43;;;10.40;99.90;;;;;;5070899;28;20489;-69
2022/04/25 05:19:04;;;;;;;30.27;26.87;;;10.50;99.90;;;;;;5065482;28;20491;-69
2022/04/25 05:21:31;;;;;;;31.37;28.07;;;10.60;99.90;;;;;;5067049;28;20512;-67
2022/04/25 05:23:59;;;;;;;31.10;27.70;;;10.60;99.90;;;;;;5049770;28;20479;-66
2022/04/25 05:26:26;;;;;;;35.83;29.80;;;10.60;99.90;;;;;;5049670;28;20439;-67
2022/04/25 05:28:53;;;;;;;32.67;28.63;;;10.60;99.90;;;;;;5049727;28;20451;-67
2022/04/25 05:31:19;;;;;;;32.03;28.67;;;10.50;99.90;;;;;;5050261;28;20439;-67
2022/04/25 05:33:46;;;;;;;30.87;27.10;;;10.40;99.90;;;;;;5050022;28;20478;-66
2022/04/25 05:36:13;;;;;;;33.20;28.40;;;10.50;99.90;;;;;;5049889;28;20452;-67
2022/04/25 05:38:40;;;;;;;32.50;29.03;;;10.50;99.90;;;;;;5050626;28;21008;-66
2022/04/25 05:41:09;;;;;;;35.47;29.27;;;10.60;99.90;;;;;;5067671;28;20489;-65
2022/04/25 05:43:36;;;;;;;32.23;28.70;;;10.70;99.90;;;;;;5070098;28;20443;-66
2022/04/25 05:46:03;;;;;;;32.63;28.37;;;10.70;99.90;;;;;;5070305;28;20461;-67
2022/04/25 05:53:59;;;;;;;31.43;28.03;;;10.90;99.90;;;;;;5070353;28;21262;-65
2022/04/25 05:56:27;;;;;;;33.57;27.37;;;10.80;99.90;;;;;;5071143;28;20867;-66
2022/04/25 05:58:54;;;;;;;33.00;29.53;;;11.00;99.90;;;;;;5070288;28;21079;-66
2022/04/25 06:01:21;;;;;;;32.60;27.67;;;11.10;99.90;;;;;;5059261;28;20608;-70
2022/04/25 06:03:48;;;;;;;29.33;26.13;;;11.40;99.90;;;;;;5062243;28;20498;-67
2022/04/25 06:06:15;;;;;;;31.13;27.47;;;11.60;99.90;;;;;;5056266;28;20945;-67
2022/04/25 06:08:41;;;;;;;30.13;27.00;;;11.80;99.90;;;;;;5070148;28;20547;-67
2022/04/25 06:11:08;;;;;;;29.70;26.50;;;11.90;99.90;;;;;;5069481;28;20443;-66
2022/04/25 06:13:37;;;;;;;30.07;26.97;;;12.00;99.90;;;;;;5054825;28;20600;-66
2022/04/25 06:16:05;;;;;;;30.10;27.00;;;12.00;99.90;;;;;;5069001;28;20810;-66
2022/04/25 06:18:32;;;;;;;29.27;26.10;;;11.90;99.90;;;;;;5069241;28;20514;-66
2022/04/25 06:20:59;;;;;;;30.47;27.23;;;11.90;99.90;;;;;;5066632;28;20459;-67
2022/04/25 06:23:26;;;;;;;30.00;26.83;;;11.80;99.90;;;;;;5061954;28;21006;-66
2022/04/25 06:25:52;;;;;;;31.33;28.03;;;11.70;99.90;;;;;;5058735;28;20463;-67
2022/04/25 06:28:19;;;;;;;30.67;27.47;;;11.70;99.90;;;;;;5064410;28;20462;-67
2022/04/25 06:30:47;;;;;;;29.33;26.23;;;11.80;99.90;;;;;;5067036;28;20443;-66
2022/04/25 06:33:14;;;;;;;30.57;27.27;;;11.90;99.90;;;;;;5062281;28;20985;-66
2022/04/25 06:35:41;;;;;;;29.63;26.57;;;12.10;99.90;;;;;;5056982;28;20478;-66
2022/04/25 06:38:08;;;;;;;28.23;25.37;;;12.00;99.90;;;;;;5059580;28;21060;-66
2022/04/25 06:40:35;;;;;;;26.77;23.70;;;12.10;99.90;;;;;;5059741;28;20442;-66
2022/04/25 06:43:02;;;;;;;27.13;24.23;;;12.20;99.90;;;;;;5059657;28;20483;-66
2022/04/25 06:45:29;;;;;;;24.50;22.00;;;12.30;99.90;;;;;;5056674;28;20471;-64
2022/04/25 06:47:59;;;;;;;25.87;23.30;;;12.40;99.90;;;;;;5056541;28;20538;-68
2022/04/25 06:50:26;;;;;;;26.67;23.80;;;12.60;99.90;;;;;;5055104;28;20454;-67
2022/04/25 06:52:53;;;;;;;25.37;22.77;;;12.70;99.90;;;;;;5056480;28;20447;-67
2022/04/25 06:55:20;;;;;;;27.63;24.23;;;12.60;99.90;;;;;;5055794;28;20474;-66
2022/04/25 06:57:47;;;;;;;27.33;24.37;;;12.50;99.90;;;;;;5059400;28;20483;-67
2022/04/25 07:00:17;;;;;;;26.43;22.80;;;12.60;99.90;;;;;;5057849;28;20476;-67
2022/04/25 07:02:45;;;;;;;29.00;24.80;;;12.50;99.90;;;;;;5048939;28;20467;-66
2022/04/25 07:05:13;;;;;;;24.70;22.10;;;12.50;99.90;;;;;;5047703;28;20463;-66
2022/04/25 07:07:40;;;;;;;25.27;22.77;;;12.50;99.90;;;;;;5050003;28;20448;-65
2022/04/25 07:10:08;;;;;;;35.80;23.07;;;12.40;99.90;;;;;;5048827;28;20462;-66
2022/04/25 07:12:35;;;;;;;24.67;22.10;;;12.30;99.90;;;;;;5049718;28;20447;-66
2022/04/25 07:15:03;;;;;;;23.47;20.97;;;12.40;99.90;;;;;;5049379;28;20521;-66
2022/04/25 07:17:30;;;;;;;25.90;23.17;;;12.40;99.90;;;;;;5049878;28;20856;-66
2022/04/25 07:19:57;;;;;;;23.93;21.57;;;12.40;99.90;;;;;;5049666;28;20579;-66
2022/04/25 07:30:46;;;;;;;23.00;20.70;;;13.60;99.90;;;;;;5013494;28;20432;-66
2022/04/25 07:33:13;;;;;;;26.43;23.87;;;14.30;99.90;;;;;;5049534;28;20531;-68
2022/04/25 07:35:40;;;;;;;26.77;24.13;;;14.70;99.90;;;;;;5049032;28;20503;-67
2022/04/25 07:38:09;;;;;;;24.47;22.07;;;15.00;99.90;;;;;;5049436;28;20937;-69
2022/04/25 07:40:36;;;;;;;24.33;21.90;;;15.20;99.90;;;;;;5049646;28;20469;-67
2022/04/25 07:43:04;;;;;;;21.60;19.60;;;15.50;99.90;;;;;;5049598;28;20447;-67
2022/04/25 07:45:31;;;;;;;23.47;21.17;;;15.50;99.90;;;;;;5048839;28;20990;-67
2022/04/25 07:47:57;;;;;;;25.37;22.93;;;15.40;99.90;;;;;;5049336;28;20448;-67
2022/04/25 07:50:25;;;;;;;22.67;20.57;;;15.20;99.90;;;;;;5049562;28;20448;-67
2022/04/25 07:52:52;;;;;;;22.73;20.57;;;14.90;99.90;;;;;;5049294;28;20452;-67
2022/04/25 07:55:20;;;;;;;20.93;18.90;;;14.90;99.90;;;;;;5048981;28;20495;-67
2022/04/25 07:57:47;;;;;;;22.87;20.77;;;15.30;99.90;;;;;;5049422;28;20450;-67
2022/04/25 08:00:15;;;;;;;25.83;22.67;;;15.80;99.90;;;;;;5049071;28;20488;-67
2022/04/25 08:02:42;;;;;;;27.00;24.40;;;15.70;99.90;;;;;;5049050;28;20939;-68
2022/04/25 08:05:09;;;;;;;25.87;23.40;;;15.80;99.90;;;;;;5049000;28;20479;-67
2022/04/25 08:07:36;;;;;;;28.40;25.90;;;15.80;99.90;;;;;;5051091;28;21004;-67
2022/04/25 08:10:03;;;;;;;25.87;23.37;;;15.60;99.90;;;;;;5053019;28;20452;-67
2022/04/25 08:18:00;;;;;;;21.20;19.13;;;16.00;99.90;;;;;;5053265;28;20427;-67
2022/04/25 08:20:28;;;;;;;23.73;21.37;;;16.30;99.90;;;;;;5052665;28;20506;-67
2022/04/25 08:22:55;;;;;;;23.70;20.83;;;16.70;99.90;;;;;;5052884;28;20474;-67
2022/04/25 08:25:22;;;;;;;21.33;19.37;;;17.10;99.90;;;;;;5052194;28;20459;-67
2022/04/25 08:27:51;;;;;;;21.83;19.80;;;17.10;99.90;;;;;;5052714;28;20466;-68
2022/04/25 08:30:19;;;;;;;22.00;20.00;;;16.60;99.90;;;;;;5052848;28;20451;-68
2022/04/25 08:32:47;;;;;;;23.47;20.97;;;15.90;99.90;;;;;;5052940;28;20475;-67
2022/04/25 08:35:14;;;;;;;22.10;20.20;;;15.50;99.90;;;;;;5052416;28;20472;-68
2022/04/25 08:37:41;;;;;;;21.43;19.43;;;15.00;99.90;;;;;;5052616;28;20456;-67
2022/04/25 08:40:10;;;;;;;21.33;19.23;;;15.10;99.90;;;;;;5052513;28;20553;-68
2022/04/25 08:42:37;;;;;;;20.00;18.10;;;15.10;99.90;;;;;;5053175;28;20451;-66
2022/04/25 08:45:07;;;;;;;21.30;19.40;;;15.50;99.90;;;;;;5052330;28;20475;-67
2022/04/25 08:47:47;;;;;;;20.60;18.70;;;15.40;99.90;;;;;;5052635;28;20454;-67
2022/04/25 08:50:16;;;;;;;23.40;21.20;;;15.40;99.90;;;;;;5052635;28;20491;-66
2022/04/25 08:52:44;;;;;;;21.40;19.40;;;15.50;99.90;;;;;;5052354;28;20513;-67
2022/04/25 08:55:12;;;;;;;21.30;19.27;;;15.70;99.90;;;;;;5052466;28;20470;-66
2022/04/25 08:57:39;;;;;;;20.90;19.00;;;15.60;99.90;;;;;;5052399;28;20444;-67
2022/04/25 09:00:09;;;;;;;22.53;20.53;;;15.40;99.90;;;;;;5052070;28;20484;-67
2022/04/25 09:02:38;;;;;;;21.23;19.13;;;15.00;99.90;;;;;;5052177;28;20452;-67
2022/04/25 09:05:05;;;;;;;22.07;20.07;;;14.90;99.90;;;;;;5051591;28;20915;-67
2022/04/25 09:07:32;;;;;;;23.67;21.47;;;15.30;99.90;;;;;;5052072;28;20444;-67
2022/04/25 09:09:59;;;;;;;20.87;18.93;;;16.00;99.90;;;;;;5052086;28;20440;-67
2022/04/25 09:12:27;;;;;;;19.57;17.77;;;16.40;99.90;;;;;;5051833;28;20544;-66
2022/04/25 09:14:56;;;;;;;18.77;17.07;;;16.70;99.90;;;;;;5051391;28;20560;-67
2022/04/25 09:17:24;;;;;;;19.73;17.83;;;17.00;99.90;;;;;;5051637;28;20455;-68
2022/04/25 09:19:51;;;;;;;20.77;19.00;;;17.30;99.90;;;;;;5051952;28;21088;-68
2022/04/25 09:22:31;;;;;;;19.37;17.67;;;16.70;99.90;;;;;;5051750;28;20471;-67
2022/04/25 09:25:04;;;;;;;21.30;19.40;;;16.80;99.90;;;;;;5051496;28;21230;-68
2022/04/25 09:27:32;;;;;;;19.70;17.83;;;16.80;99.90;;;;;;5051674;28;20454;-67
2022/04/25 09:30:13;;;;;;;21.23;19.30;;;17.20;99.90;;;;;;5051558;28;20447;-68
2022/04/25 09:32:41;;;;;;;18.37;16.70;;;17.70;99.90;;;;;;5051428;28;20454;-67
2022/04/25 09:35:30;;;;;;;19.20;17.50;;;17.60;99.90;;;;;;5051153;28;20817;-67
2022/04/25 09:37:58;;;;;;;19.10;17.20;;;18.00;99.90;;;;;;5051783;28;20444;-67
2022/04/25 09:40:28;;;;;;;18.70;17.00;;;18.60;99.90;;;;;;5051257;28;20476;-68
2022/04/25 09:43:12;;;;;;;18.20;16.67;;;19.40;99.90;;;;;;5051547;28;20472;-68
2022/04/25 09:45:42;;;;;;;18.93;17.23;;;19.90;99.90;;;;;;5051040;28;20997;-67
2022/04/25 09:48:15;;;;;;;17.37;15.80;;;20.50;99.90;;;;;;5051228;28;20538;-67
2022/04/25 09:50:45;;;;;;;16.37;15.10;;;21.00;99.90;;;;;;5051187;28;20498;-68
2022/04/25 09:53:12;;;;;;;17.70;16.20;;;21.10;99.60;;;;;;5050999;28;20455;-68
2022/04/25 09:55:41;;;;;;;17.93;16.43;;;21.30;99.30;;;;;;5050875;28;20464;-67
2022/04/25 09:58:18;;;;;;;19.30;17.60;;;20.80;96.50;;;;;;5051322;28;20937;-66
2022/04/25 10:00:46;;;;;;;16.73;15.13;;;19.50;98.10;;;;;;5051110;28;20480;-67
2022/04/25 10:03:17;;;;;;;16.60;15.10;;;18.20;99.30;;;;;;5051037;28;20502;-67
2022/04/25 10:05:46;;;;;;;18.17;16.37;;;18.00;99.90;;;;;;5050519;28;20605;-67
2022/04/25 10:08:14;;;;;;;17.50;15.90;;;17.80;99.80;;;;;;5050967;28;20444;-67
2022/04/25 10:10:46;;;;;;;15.40;14.07;;;18.20;98.80;;;;;;5050914;28;20806;-67
2022/04/25 10:13:14;;;;;;;18.00;16.40;;;18.50;99.90;;;;;;5050889;28;20456;-68
2022/04/25 10:15:42;;;;;;;18.03;16.53;;;18.00;99.90;;;;;;5050381;28;20853;-67
2022/04/25 10:18:10;;;;;;;17.43;15.93;;;18.40;99.90;;;;;;5050672;28;20829;-67
2022/04/25 10:20:40;;;;;;;18.33;16.60;;;18.70;99.90;;;;;;5050557;28;20479;-66
2022/04/25 10:23:10;;;;;;;17.50;16.00;;;18.80;98.80;;;;;;5050740;28;20451;-67
2022/04/25 10:25:38;;;;;;;18.37;16.77;;;19.60;99.90;;;;;;5050353;28;20475;-67
2022/04/25 10:28:08;;;;;;;17.60;16.10;;;20.30;99.70;;;;;;5050692;28;20443;-67
2022/04/25 10:30:36;;;;;;;15.80;14.40;;;20.40;97.50;;;;;;5049710;28;20448;-67
2022/04/25 10:33:16;;;;;;;17.80;16.30;;;20.30;96.80;;;;;;5050406;28;20444;-67
2022/04/25 10:35:46;;;;;;;15.40;14.10;;;20.30;98.50;;;;;;5050411;28;20472;-67
2022/04/25 10:38:50;;;;;;;15.63;14.30;;;20.60;95.30;;;;;;5050633;28;20470;-66
2022/04/25 10:44:51;;;;;;;15.37;14.07;;;21.00;95.60;;;;;;5049996;28;21087;-67
2022/04/25 10:47:19;;;;;;;14.70;13.47;;;21.10;94.40;;;;;;5050120;28;20444;-66
2022/04/25 10:49:48;;;;;;;16.37;14.97;;;21.40;92.20;;;;;;5050067;28;20447;-67
2022/04/25 10:53:01;;;;;;;17.37;15.87;;;20.10;93.30;;;;;;5050267;28;20531;-66
2022/04/25 10:55:38;;;;;;;16.40;15.10;;;19.00;95.90;;;;;;5049744;28;20468;-67
2022/04/25 10:58:18;;;;;;;17.03;15.60;;;19.10;97.10;;;;;;5049886;28;20448;-67
2022/04/25 11:00:57;;;;;;;17.67;16.20;;;19.10;96.50;;;;;;5049862;28;20837;-67
2022/04/25 11:03:32;;;;;;;14.77;13.47;;;19.30;96.00;;;;;;5049380;28;20994;-67
2022/04/25 11:06:05;;;;;;;17.93;16.43;;;19.40;95.60;;;;;;5049842;28;20454;-67
2022/04/25 11:08:40;;;;;;;19.57;17.73;;;19.00;95.50;;;;;;5050108;28;20528;-66
2022/04/25 11:11:14;;;;;;;17.27;15.67;;;18.80;98.30;;;;;;5049766;28;20447;-67
2022/04/25 11:14:13;;;;;;;17.90;16.17;;;19.20;99.90;;;;;;5049812;28;20491;-67
2022/04/25 11:16:41;;;;;;;15.17;13.97;;;19.20;96.60;;;;;;5049775;28;20451;-67
2022/04/25 11:19:10;;;;;;;16.37;14.93;;;18.90;97.00;;;;;;5049663;28;20448;-67
2022/04/25 11:21:42;;;;;;;17.20;15.70;;;18.50;97.10;;;;;;5049427;28;20993;-66
2022/04/25 11:27:02;;;;;;;17.00;15.50;;;18.00;98.20;;;;;;5164655;27;20931;-66
2022/04/25 11:29:29;;;;;;;19.90;16.03;;;18.10;98.50;;;;;;5148629;27;20441;-67
2022/04/25 11:32:30;;;;;;;18.23;16.47;;;17.40;99.50;;;;;;5148743;27;20822;-67
2022/04/25 11:35:00;;;;;;;18.90;16.10;;;17.10;99.90;;;;;;5130296;27;20893;-66
2022/04/25 11:37:29;;;;;;;18.50;16.80;;;16.80;99.90;;;;;;5127879;28;20930;-68
2022/04/25 11:40:01;;;;;;;17.83;16.00;;;16.60;99.90;;;;;;5127820;28;20444;-67
2022/04/25 11:42:32;;;;;;;19.20;17.40;;;16.30;99.90;;;;;;5127582;28;20487;-67
2022/04/25 11:45:01;;;;;;;18.73;16.93;;;16.30;99.90;;;;;;5127158;27;20855;-67
2022/04/25 11:47:29;;;;;;;17.77;16.07;;;16.20;99.90;;;;;;5127874;27;20455;-67
2022/04/25 11:50:00;;;;;;;18.47;16.80;;;16.40;99.90;;;;;;5127676;28;20805;-67
2022/04/25 11:52:27;;;;;;;18.40;16.80;;;16.30;99.90;;;;;;5127650;28;20448;-67
2022/04/25 11:54:56;;;;;;;18.97;17.00;;;16.30;99.90;;;;;;5127149;27;20470;-68
2022/04/25 11:57:23;;;;;;;17.43;15.83;;;16.20;99.90;;;;;;5127454;28;20440;-67
2022/04/25 12:00:13;;;;;;;17.67;15.93;;;16.10;99.90;;;;;;5127670;28;20455;-67
2022/04/25 12:02:40;;;;;;;19.43;17.37;;;16.00;99.90;;;;;;5127333;28;20455;-68
2022/04/25 12:05:09;;;;;;;19.10;17.30;;;15.80;99.90;;;;;;5126909;27;20513;-67
2022/04/25 12:07:37;;;;;;;20.90;18.70;;;15.70;99.90;;;;;;5127269;27;20844;-67
2022/04/25 12:15:41;;;;;;;22.17;19.97;;;15.00;99.90;;;;;;5126878;27;20432;-67
2022/04/25 12:18:17;;;;;;;23.90;21.40;;;14.90;99.90;;;;;;5126978;28;20448;-67
2022/04/25 12:20:45;;;;;;;22.17;19.77;;;14.70;99.90;;;;;;5123045;27;20447;-67
2022/04/25 12:23:22;;;;;;;23.97;21.30;;;14.80;99.90;;;;;;5135819;27;20505;-67
2022/04/25 12:25:49;;;;;;;23.53;21.33;;;14.70;99.90;;;;;;5132151;27;20914;-67
2022/04/25 12:28:18;;;;;;;22.00;19.83;;;14.70;99.90;;;;;;5133424;27;20444;-67
2022/04/25 12:30:54;;;;;;;23.60;21.30;;;14.50;99.90;;;;;;5131656;27;20447;-67
2022/04/25 12:33:23;;;;;;;24.13;21.60;;;14.30;99.90;;;;;;5125201;28;20447;-67
2022/04/25 12:36:06;;;;;;;23.33;21.03;;;14.00;99.90;;;;;;5126502;27;20469;-67
2022/04/25 12:38:40;;;;;;;26.40;23.80;;;13.90;99.90;;;;;;5109841;28;20536;-67
2022/04/25 12:41:09;;;;;;;26.70;23.90;;;14.00;99.90;;;;;;5111725;28;20449;-67
2022/04/25 12:43:43;;;;;;;27.30;24.50;;;13.80;99.90;;;;;;5112829;28;20434;-67
2022/04/25 12:46:12;;;;;;;26.00;23.50;;;13.70;99.90;;;;;;5112611;28;20484;-67
2022/04/25 12:48:59;;;;;;;26.20;23.60;;;13.60;99.90;;;;;;5112652;28;20965;-67
2022/04/25 12:51:31;;;;;;;25.67;23.07;;;13.50;99.90;;;;;;5095550;28;20444;-67
2022/04/25 12:53:58;;;;;;;28.50;25.53;;;13.50;99.90;;;;;;5112696;28;20483;-68
2022/04/25 12:56:26;;;;;;;26.57;23.87;;;13.50;99.90;;;;;;5112250;28;20796;-67
2022/04/25 12:58:53;;;;;;;26.00;23.40;;;13.70;99.90;;;;;;5112162;28;21260;-67
2022/04/25 13:01:33;;;;;;;25.60;23.00;;;13.80;99.90;;;;;;5113445;27;20503;-67
2022/04/25 13:04:12;;;;;;;24.07;21.70;;;13.90;99.90;;;;;;5115019;27;20223;-67
2022/04/25 13:06:40;;;;;;;25.07;22.67;;;13.90;99.90;;;;;;5120254;27;20504;-68
2022/04/25 13:09:07;;;;;;;23.57;21.17;;;14.10;99.90;;;;;;5114918;27;20445;-67
2022/04/25 13:11:34;;;;;;;23.67;21.27;;;14.30;99.90;;;;;;5111703;27;20459;-67
2022/04/25 13:14:01;;;;;;;22.57;20.33;;;14.80;99.90;;;;;;5111491;28;20468;-67
2022/04/25 13:16:29;;;;;;;21.60;19.50;;;15.80;99.90;;;;;;5112239;28;20455;-67